createdAt,value
2018-08-13T00:02:12.834Z,40.58
2018-08-13T00:04:41.541Z,40.05
2018-08-13T00:07:11.012Z,39.66
2018-08-13T00:09:41.863Z,39.63
2018-08-13T00:12:13.837Z,39.46
2018-08-13T00:14:42.419Z,40.13
2018-08-13T00:17:14.667Z,40.47
2018-08-13T00:19:44.754Z,40.93
2018-08-13T00:22:14.055Z,40.69
2018-08-13T00:24:44.484Z,41.09
2018-08-13T00:27:14.853Z,40.71
2018-08-13T00:29:54.861Z,40.77
2018-08-13T00:32:32.475Z,40.75
2018-08-13T00:35:05.504Z,41.56
2018-08-13T00:37:35.560Z,41.59
2018-08-13T00:40:12.006Z,41.04
2018-08-13T00:42:43.665Z,41.43
2018-08-13T00:45:16.970Z,40.88
2018-08-13T00:47:45.582Z,40.96
2018-08-13T00:50:15.211Z,41.03
2018-08-13T00:52:49.604Z,42.02
2018-08-13T00:55:18.274Z,41.94
2018-08-13T00:57:47.227Z,42.47
2018-08-13T01:00:20.461Z,42.03
2018-08-13T01:02:51.632Z,42.07
2018-08-13T01:05:21.326Z,42.93
2018-08-13T01:07:55.227Z,42.24
2018-08-13T01:10:23.824Z,42.37
2018-08-13T01:12:52.871Z,42.74
2018-08-13T01:15:21.648Z,43.06
2018-08-13T01:17:56.914Z,45.84
2018-08-13T01:20:25.951Z,45.79
2018-08-13T01:22:54.606Z,46.09
2018-08-13T01:25:23.205Z,46.41
2018-08-13T01:27:52.464Z,46.13
2018-08-13T01:30:21.066Z,45.84
2018-08-13T01:32:49.811Z,46.50
2018-08-13T01:35:18.737Z,45.83
2018-08-13T01:37:47.385Z,46.46
2018-08-13T01:40:16.023Z,46.59
2018-08-13T01:42:45.831Z,46.44
2018-08-13T01:45:14.362Z,46.19
2018-08-13T01:47:47.866Z,46.69
2018-08-13T01:50:16.888Z,46.38
2018-08-13T01:52:49.231Z,47.53
2018-08-13T01:55:17.808Z,47.15
2018-08-13T01:57:53.439Z,46.61
2018-08-13T02:00:22.015Z,46.78
2018-08-13T02:02:50.692Z,46.53
2018-08-13T02:05:19.790Z,46.28
2018-08-13T02:07:48.355Z,46.06
2018-08-13T02:10:16.999Z,45.99
2018-08-13T02:12:46.077Z,45.71
2018-08-13T02:15:15.832Z,45.66
2018-08-13T02:17:44.655Z,44.79
2018-08-13T02:20:13.575Z,45.52
2018-08-13T02:22:45.182Z,44.76
2018-08-13T02:25:13.983Z,44.28
2018-08-13T02:27:44.798Z,44.26
2018-08-13T02:30:13.424Z,44.02
2018-08-13T02:32:42.086Z,44.17
2018-08-13T02:35:17.005Z,44.05
2018-08-13T02:37:45.628Z,44.40
2018-08-13T02:40:14.237Z,44.57
2018-08-13T02:42:43.191Z,44.51
2018-08-13T02:45:11.999Z,43.67
2018-08-13T02:47:40.592Z,43.55
2018-08-13T02:50:14.831Z,43.42
2018-08-13T02:52:43.423Z,44.30
2018-08-13T02:55:12.403Z,44.09
2018-08-13T02:57:41.334Z,43.76
2018-08-13T03:00:22.351Z,44.34
2018-08-13T03:02:51.437Z,44.70
2018-08-13T03:05:20.103Z,44.36
2018-08-13T03:07:48.707Z,45.46
2018-08-13T03:10:17.832Z,45.12
2018-08-13T03:12:46.702Z,45.40
2018-08-13T03:15:15.662Z,45.72
2018-08-13T03:17:48.625Z,45.72
2018-08-13T03:20:17.181Z,46.02
2018-08-13T03:22:45.746Z,46.02
2018-08-13T03:25:14.685Z,45.50
2018-08-13T03:27:43.203Z,45.85
2018-08-13T03:30:12.882Z,45.54
2018-08-13T03:32:43.066Z,45.42
2018-08-13T03:35:11.732Z,45.85
2018-08-13T03:37:40.485Z,46.31
2018-08-13T03:40:11.462Z,48.70
2018-08-13T03:42:40.073Z,49.79
2018-08-13T03:45:10.269Z,50.35
2018-08-13T03:47:39.553Z,50.76
2018-08-13T03:50:09.583Z,49.24
2018-08-13T03:52:38.175Z,49.28
2018-08-13T03:55:08.557Z,49.60
2018-08-13T03:57:41.008Z,49.42
2018-08-13T04:00:13.563Z,49.12
2018-08-13T04:02:43.529Z,48.48
2018-08-13T04:05:12.866Z,48.94
2018-08-13T04:07:41.612Z,48.58
2018-08-13T04:10:12.795Z,49.14
2018-08-13T04:12:42.739Z,48.59
2018-08-13T04:15:12.890Z,48.07
2018-08-13T04:17:47.981Z,48.77
2018-08-13T04:20:16.742Z,49.94
2018-08-13T04:22:45.514Z,50.18
2018-08-13T04:25:14.590Z,50.21
2018-08-13T04:27:43.187Z,50.94
2018-08-13T04:30:14.204Z,51.16
2018-08-13T04:32:44.020Z,51.51
2018-08-13T04:35:12.612Z,51.79
2018-08-13T04:37:41.790Z,51.02
2018-08-13T04:40:15.144Z,51.47
2018-08-13T04:42:45.379Z,51.70
2018-08-13T04:45:14.036Z,50.91
2018-08-13T04:47:50.903Z,51.30
2018-08-13T04:50:19.693Z,50.73
2018-08-13T04:52:48.672Z,49.77
2018-08-13T04:55:17.835Z,50.08
2018-08-13T04:57:46.453Z,49.97
2018-08-13T05:00:15.533Z,49.25
2018-08-13T05:02:49.794Z,48.74
2018-08-13T05:05:18.386Z,48.39
2018-08-13T05:07:47.272Z,48.10
2018-08-13T05:10:16.047Z,47.58
2018-08-13T05:12:45.400Z,46.71
2018-08-13T05:15:14.386Z,46.10
2018-08-13T05:17:43.115Z,45.30
2018-08-13T05:20:12.009Z,44.90
2018-08-13T05:22:40.946Z,46.20
2018-08-13T05:25:10.804Z,46.22
2018-08-13T05:27:40.065Z,46.00
2018-08-13T05:30:10.223Z,46.67
2018-08-13T05:32:42.275Z,45.80
2018-08-13T05:35:10.935Z,46.11
2018-08-13T05:37:42.211Z,46.34
2018-08-13T05:40:11.471Z,46.93
2018-08-13T05:42:46.713Z,47.39
2018-08-13T05:45:15.353Z,47.18
2018-08-13T05:47:43.937Z,47.23
2018-08-13T05:50:13.856Z,46.99
2018-08-13T05:52:42.476Z,47.43
2018-08-13T05:55:12.708Z,46.77
2018-08-13T05:57:41.330Z,46.25
2018-08-13T06:00:12.907Z,46.64
2018-08-13T06:02:42.890Z,46.83
2018-08-13T06:05:12.672Z,47.15
2018-08-13T06:07:41.958Z,47.48
2018-08-13T06:10:12.019Z,48.04
2018-08-13T06:12:41.235Z,48.47
2018-08-13T06:15:11.531Z,49.23
2018-08-13T06:17:44.074Z,48.72
2018-08-13T06:20:13.411Z,48.37
2018-08-13T06:22:43.204Z,48.52
2018-08-13T06:25:12.996Z,49.60
2018-08-13T06:27:41.809Z,50.79
2018-08-13T06:30:13.930Z,52.09
2018-08-13T06:32:44.187Z,53.36
2018-08-13T06:35:18.551Z,54.49
2018-08-13T06:37:47.152Z,55.44
2018-08-13T06:40:20.990Z,55.93
2018-08-13T06:42:49.608Z,56.52
2018-08-13T06:45:18.940Z,56.91
2018-08-13T06:47:48.099Z,56.84
2018-08-13T06:50:16.921Z,58.55
2018-08-13T06:52:45.518Z,57.71
2018-08-13T06:57:54.472Z,59.35
2018-08-13T07:00:23.178Z,59.32
2018-08-13T07:02:52.292Z,59.26
2018-08-13T07:05:25.739Z,59.19
2018-08-13T07:07:54.300Z,59.41
2018-08-13T07:10:32.532Z,59.55
2018-08-13T07:13:02.724Z,59.37
2018-08-13T07:15:31.304Z,58.89
2018-08-13T07:18:00.231Z,61.05
2018-08-13T07:20:28.924Z,62.15
2018-08-13T07:22:57.541Z,61.74
2018-08-13T07:25:27.920Z,62.51
2018-08-13T07:27:56.546Z,62.69
2018-08-13T07:30:25.296Z,63.59
2018-08-13T07:32:54.291Z,63.67
2018-08-13T07:35:23.232Z,63.71
2018-08-13T07:37:51.914Z,64.49
2018-08-13T07:40:21.067Z,64.31
2018-08-13T07:42:49.721Z,64.33
2018-08-13T07:45:20.408Z,64.59
2018-08-13T07:47:49.295Z,64.93
2018-08-13T07:50:22.011Z,65.02
2018-08-13T07:52:50.750Z,65.29
2018-08-13T07:55:19.829Z,64.90
2018-08-13T08:00:22.122Z,64.10
2018-08-13T08:02:52.246Z,65.04
2018-08-13T08:05:20.923Z,65.44
2018-08-13T08:10:29.452Z,65.94
2018-08-13T08:12:58.709Z,66.36
2018-08-13T08:15:27.452Z,66.07
2018-08-13T08:18:04.143Z,67.62
2018-08-13T08:20:32.916Z,67.56
2018-08-13T08:23:01.619Z,67.96
2018-08-13T08:25:30.340Z,68.56
2018-08-13T08:27:59.264Z,69.04
2018-08-13T08:30:28.291Z,69.95
2018-08-13T08:32:56.917Z,69.80
2018-08-13T08:37:59.826Z,70.04
2018-08-13T08:40:34.035Z,70.90
2018-08-13T08:43:03.113Z,70.97
2018-08-13T08:45:37.611Z,70.32
2018-08-13T08:48:08.060Z,71.27
2018-08-13T08:50:36.851Z,72.07
2018-08-13T08:53:05.990Z,72.59
2018-08-13T08:55:34.684Z,71.71
2018-08-13T08:58:04.396Z,71.25
2018-08-13T09:00:33.477Z,72.39
2018-08-13T09:03:02.318Z,72.10
2018-08-13T09:05:31.006Z,72.79
2018-08-13T09:08:00.068Z,72.60
2018-08-13T09:10:28.754Z,72.55
2018-08-13T09:12:57.356Z,73.75
2018-08-13T09:15:29.355Z,72.98
2018-08-13T09:18:08.899Z,73.70
2018-08-13T09:20:48.625Z,73.35
2018-08-13T09:23:28.183Z,73.29
2018-08-13T09:26:10.241Z,74.49
2018-08-13T09:28:49.951Z,75.18
2018-08-13T09:31:29.943Z,75.81
2018-08-13T09:34:10.927Z,76.80
2018-08-13T09:36:42.987Z,77.90
2018-08-13T09:39:13.920Z,77.83
2018-08-13T09:41:42.623Z,77.95
2018-08-13T09:44:16.187Z,77.79
2018-08-13T09:46:47.510Z,77.96
2018-08-13T09:49:16.322Z,79.60
2018-08-13T09:51:53.251Z,79.05
2018-08-13T09:54:33.254Z,79.26
2018-08-13T09:57:04.818Z,80.05
2018-08-13T10:06:20.835Z,79.67
2018-08-13T10:09:59.455Z,77.41
2018-08-13T10:15:43.506Z,77.07
2018-08-13T10:18:40.327Z,77.12
2018-08-13T10:21:11.463Z,78.27
2018-08-13T10:26:21.148Z,78.83
2018-08-13T10:28:49.835Z,78.76
2018-08-13T10:31:18.463Z,78.53
2018-08-13T10:33:47.572Z,79.81
2018-08-13T10:36:16.217Z,80.14
2018-08-13T10:38:44.843Z,80.79
2018-08-13T10:41:13.795Z,79.71
2018-08-13T10:43:42.513Z,80.22
2018-08-13T10:46:11.136Z,79.07
2018-08-13T10:48:40.190Z,78.28
2018-08-13T10:51:09.094Z,78.49
2018-08-13T10:57:23.369Z,77.79
2018-08-13T11:03:34.683Z,77.70
2018-08-13T11:06:18.133Z,77.86
2018-08-13T11:08:54.406Z,76.96
2018-08-13T11:11:47.759Z,75.99
2018-08-13T11:14:20.764Z,78.54
2018-08-13T11:16:50.345Z,78.31
2018-08-13T11:19:18.995Z,79.39
2018-08-13T11:21:48.608Z,78.63
2018-08-13T11:24:17.787Z,78.94
2018-08-13T11:26:46.520Z,79.98
2018-08-13T11:29:15.244Z,79.92
2018-08-13T11:31:44.384Z,80.03
2018-08-13T11:34:12.935Z,78.90
2018-08-13T11:36:42.468Z,78.84
2018-08-13T11:39:13.143Z,78.46
2018-08-13T11:41:51.848Z,78.36
2018-08-13T11:44:20.536Z,78.67
2018-08-13T11:46:54.614Z,78.05
2018-08-13T11:49:23.378Z,76.75
2018-08-13T11:51:55.368Z,77.19
2018-08-13T11:54:24.138Z,76.41
2018-08-13T11:56:56.723Z,77.18
2018-08-13T11:59:25.431Z,77.62
2018-08-13T12:01:54.151Z,78.15
2018-08-13T12:04:23.116Z,77.99
2018-08-13T12:06:55.179Z,78.83
2018-08-13T12:09:23.826Z,79.10
2018-08-13T12:11:55.748Z,78.57
2018-08-13T12:14:24.611Z,79.40
2018-08-13T12:16:58.445Z,77.86
2018-08-13T12:19:27.783Z,77.36
2018-08-13T12:22:00.116Z,77.26
2018-08-13T12:27:00.140Z,76.63
2018-08-13T12:29:32.916Z,75.30
2018-08-13T12:32:03.928Z,75.78
2018-08-13T12:34:32.621Z,75.26
2018-08-13T12:37:09.469Z,75.05
2018-08-13T12:39:40.893Z,76.65
2018-08-13T12:42:10.834Z,76.91
2018-08-13T12:44:44.128Z,76.64
2018-08-13T12:47:12.853Z,76.97
2018-08-13T12:49:41.473Z,77.24
2018-08-13T12:52:10.410Z,76.98
2018-08-13T12:54:44.965Z,76.32
2018-08-13T12:57:13.975Z,74.72
2018-08-13T12:59:42.933Z,75.31
2018-08-13T13:02:12.192Z,75.61
2018-08-13T13:04:46.828Z,74.89
2018-08-13T13:07:15.388Z,74.57
2018-08-13T13:09:44.592Z,71.46
2018-08-13T13:12:13.719Z,63.60
2018-08-13T13:14:42.423Z,56.21
2018-08-13T13:17:11.211Z,54.14
2018-08-13T13:19:41.042Z,52.87
2018-08-13T13:22:09.949Z,49.38
2018-08-13T13:24:38.608Z,46.71
2018-08-13T13:27:07.651Z,45.38
2018-08-13T13:29:36.634Z,42.40
2018-08-13T13:32:06.761Z,38.29
2018-08-13T13:34:35.842Z,36.02
2018-08-13T13:37:05.126Z,32.85
2018-08-13T13:39:33.715Z,33.37
2018-08-13T13:42:03.500Z,36.79
2018-08-13T13:44:32.188Z,38.63
2018-08-13T13:47:01.384Z,36.83
2018-08-13T13:49:30.427Z,36.93
2018-08-13T13:51:59.090Z,37.60
2018-08-13T13:54:27.830Z,37.81
2018-08-13T13:57:00.280Z,34.93
2018-08-13T13:59:28.901Z,30.74
2018-08-13T14:01:57.493Z,29.97
2018-08-13T14:04:26.490Z,35.08
2018-08-13T14:06:56.913Z,38.26
2018-08-13T14:09:25.579Z,38.96
2018-08-13T14:11:57.100Z,35.14
2018-08-13T14:14:25.739Z,34.37
2018-08-13T14:16:54.911Z,30.26
2018-08-13T14:19:24.247Z,27.80
2018-08-13T14:21:52.903Z,26.83
2018-08-13T14:24:21.595Z,30.52
2018-08-13T14:26:50.868Z,30.46
2018-08-13T14:31:54.269Z,39.77
2018-08-13T14:34:23.300Z,42.06
2018-08-13T14:36:55.504Z,40.37
2018-08-13T14:39:24.212Z,40.62
2018-08-13T14:41:53.301Z,42.42
2018-08-13T14:44:21.954Z,44.95
2018-08-13T14:46:50.619Z,45.55
2018-08-13T14:49:19.518Z,48.71
2018-08-13T14:51:48.132Z,48.21
2018-08-13T14:54:16.725Z,48.14
2018-08-13T14:56:45.992Z,48.77
2018-08-13T14:59:14.663Z,49.63
2018-08-13T15:01:44.571Z,51.25
2018-08-13T15:04:13.620Z,52.59
2018-08-13T15:06:42.237Z,51.99
2018-08-13T15:09:11.654Z,56.44
2018-08-13T15:11:47.832Z,57.46
2018-08-13T15:14:17.107Z,57.28
2018-08-13T15:16:46.057Z,57.90
2018-08-13T15:19:14.769Z,59.41
2018-08-13T15:21:43.376Z,64.40
2018-08-13T15:24:15.174Z,71.44
2018-08-13T15:26:43.844Z,72.91
2018-08-13T15:29:12.443Z,75.14
2018-08-13T15:31:42.410Z,76.09
2018-08-13T15:34:11.104Z,73.68
2018-08-13T15:36:40.503Z,73.13
2018-08-13T15:39:11.148Z,73.66
2018-08-13T15:41:48.430Z,72.53
2018-08-13T15:47:16.174Z,47.93
2018-08-13T15:49:45.266Z,46.31
2018-08-13T15:52:17.845Z,43.46
2018-08-13T15:54:46.492Z,41.83
2018-08-13T15:57:15.135Z,39.53
2018-08-13T15:59:43.774Z,40.94
2018-08-13T16:02:12.939Z,47.79
2018-08-13T16:04:41.606Z,53.28
2018-08-13T16:07:12.663Z,56.31
2018-08-13T16:09:47.668Z,58.28
2018-08-13T16:12:16.913Z,58.68
2018-08-13T16:14:45.588Z,60.36
2018-08-13T16:17:15.485Z,57.33
2018-08-13T16:19:44.189Z,53.29
2018-08-13T16:22:13.053Z,52.93
2018-08-13T16:24:41.716Z,51.47
2018-08-13T16:27:10.412Z,51.71
2018-08-13T16:29:39.139Z,51.17
2018-08-13T16:32:07.892Z,50.58
2018-08-13T16:34:36.747Z,51.46
2018-08-13T16:37:06.676Z,49.91
2018-08-13T16:39:35.409Z,50.26
2018-08-13T16:42:06.117Z,50.23
2018-08-13T16:44:35.048Z,51.13
2018-08-13T16:47:10.314Z,51.26
2018-08-13T16:49:38.941Z,51.14
2018-08-13T16:52:08.082Z,53.24
2018-08-13T16:54:36.717Z,53.83
2018-08-13T16:57:12.164Z,54.44
2018-08-13T16:59:41.093Z,56.86
2018-08-13T17:02:09.808Z,56.65
2018-08-13T17:04:38.458Z,57.88
2018-08-13T17:07:07.521Z,58.32
2018-08-13T17:09:36.291Z,58.59
2018-08-13T17:12:05.396Z,57.06
2018-08-13T17:14:34.437Z,58.51
2018-08-13T17:17:03.319Z,61.31
2018-08-13T17:19:38.665Z,61.38
2018-08-13T17:22:08.978Z,61.79
2018-08-13T17:24:37.639Z,62.88
2018-08-13T17:29:47.207Z,63.04
2018-08-13T17:32:16.133Z,62.38
2018-08-13T17:34:45.708Z,60.71
2018-08-13T17:37:22.649Z,60.88
2018-08-13T17:39:51.487Z,59.85
2018-08-13T17:42:20.231Z,60.69
2018-08-13T17:44:50.057Z,60.51
2018-08-13T17:47:23.342Z,60.51
2018-08-13T17:49:52.144Z,60.93
2018-08-13T17:52:22.905Z,60.54
2018-08-13T17:54:51.511Z,59.51
2018-08-13T17:57:25.190Z,60.69
2018-08-13T17:59:57.930Z,59.24
2018-08-13T18:02:26.728Z,61.21
2018-08-13T18:04:55.258Z,61.08
2018-08-13T18:07:24.496Z,61.34
2018-08-13T18:09:53.249Z,61.94
2018-08-13T18:12:21.950Z,61.95
2018-08-13T18:14:51.480Z,62.48
2018-08-13T18:17:21.184Z,62.72
2018-08-13T18:19:50.150Z,63.04
2018-08-13T18:22:20.363Z,62.87
2018-08-13T18:24:49.089Z,63.37
2018-08-13T18:27:17.837Z,62.52
2018-08-13T18:29:46.993Z,61.88
2018-08-13T18:32:16.052Z,62.68
2018-08-13T18:34:45.041Z,63.53
2018-08-13T18:37:14.125Z,61.52
2018-08-13T18:39:42.774Z,60.99
2018-08-13T18:42:11.656Z,59.32
2018-08-13T18:44:44.507Z,59.73
2018-08-13T18:47:13.415Z,59.97
2018-08-13T18:49:42.195Z,59.61
2018-08-13T18:52:10.899Z,59.29
2018-08-13T18:54:39.555Z,59.10
2018-08-13T18:57:08.228Z,58.87
2018-08-13T18:59:36.862Z,58.05
2018-08-13T19:02:06.950Z,58.16
2018-08-13T19:04:35.689Z,58.71
2018-08-13T19:07:10.628Z,58.43
2018-08-13T19:09:39.684Z,58.35
2018-08-13T19:12:09.289Z,57.87
2018-08-13T19:14:38.268Z,58.11
2018-08-13T19:17:08.564Z,57.94
2018-08-13T19:19:37.630Z,57.86
2018-08-13T19:22:06.381Z,58.02
2018-08-13T19:24:35.745Z,56.93
2018-08-13T19:27:09.952Z,56.42
2018-08-13T19:29:38.880Z,56.34
2018-08-13T19:32:07.647Z,57.05
2018-08-13T19:34:36.239Z,56.84
2018-08-13T19:37:05.260Z,56.61
2018-08-13T19:39:35.148Z,56.94
2018-08-13T19:42:04.556Z,56.01
2018-08-13T19:44:33.641Z,56.62
2018-08-13T19:47:02.595Z,56.38
2018-08-13T19:49:31.415Z,55.68
2018-08-13T19:52:00.457Z,56.83
2018-08-13T19:54:29.128Z,57.00
2018-08-13T19:56:57.872Z,56.68
2018-08-13T19:59:26.927Z,57.12
2018-08-13T20:01:56.837Z,57.58
2018-08-13T20:04:35.340Z,58.08
2018-08-13T20:07:06.193Z,57.96
2018-08-13T20:09:34.927Z,58.03
2018-08-13T20:12:04.732Z,57.73
2018-08-13T20:14:34.484Z,58.03
2018-08-13T20:17:03.431Z,57.68
2018-08-13T20:19:32.273Z,57.63
2018-08-13T20:22:02.613Z,57.72
2018-08-13T20:24:31.496Z,58.15
2018-08-13T20:27:00.399Z,58.27
2018-08-13T20:29:29.528Z,57.79
2018-08-13T20:32:05.191Z,57.71
2018-08-13T20:34:34.091Z,58.10
2018-08-13T20:37:02.918Z,58.32
2018-08-13T20:39:31.466Z,57.87
2018-08-13T20:42:06.121Z,59.00
2018-08-13T20:44:34.695Z,58.97
2018-08-13T20:47:03.550Z,59.31
2018-08-13T20:52:06.843Z,60.17
2018-08-13T20:54:46.465Z,60.15
2018-08-13T20:57:15.339Z,60.11
2018-08-13T20:59:43.950Z,59.48
2018-08-13T21:02:12.894Z,59.52
2018-08-13T21:04:41.748Z,58.78
2018-08-13T21:07:10.867Z,58.76
2018-08-13T21:09:41.104Z,59.13
2018-08-13T21:12:10.052Z,59.36
2018-08-13T21:14:43.566Z,59.33
2018-08-13T21:17:12.517Z,59.20
2018-08-13T21:19:41.236Z,58.02
2018-08-13T21:22:09.977Z,58.27
2018-08-13T21:24:40.346Z,58.37
2018-08-13T21:27:09.101Z,58.21
2018-08-13T21:29:37.788Z,58.89
2018-08-13T21:32:06.946Z,58.67
2018-08-13T21:34:35.638Z,59.29
2018-08-13T21:37:04.354Z,58.96
2018-08-13T21:39:36.537Z,58.58
2018-08-13T21:42:05.902Z,58.97
2018-08-13T21:44:34.568Z,59.19
2018-08-13T21:47:05.786Z,58.69
2018-08-13T21:49:36.093Z,59.21
2018-08-13T21:52:06.896Z,59.44
2018-08-13T21:54:35.881Z,60.10
2018-08-13T21:57:04.469Z,59.90
2018-08-13T21:59:37.800Z,60.06
2018-08-13T22:02:12.126Z,60.33
2018-08-13T22:04:42.046Z,60.12
2018-08-13T22:07:10.978Z,60.40
2018-08-13T22:09:39.680Z,60.18
2018-08-13T22:12:23.696Z,58.95
2018-08-13T22:14:52.589Z,59.78
2018-08-13T22:17:25.087Z,58.82
2018-08-13T22:19:54.656Z,59.41
2018-08-13T22:22:23.541Z,59.52
2018-08-13T22:25:03.071Z,59.23
2018-08-13T22:27:33.077Z,58.99
2018-08-13T22:30:02.997Z,58.84
2018-08-13T22:32:31.625Z,59.08
2018-08-13T22:35:00.656Z,59.25
2018-08-13T22:37:29.481Z,59.42
2018-08-13T22:39:58.239Z,59.22
2018-08-13T22:42:27.337Z,59.61
2018-08-13T22:44:56.858Z,59.03
2018-08-13T22:47:25.416Z,59.22
2018-08-13T22:49:54.462Z,58.83
2018-08-13T22:52:23.097Z,58.76
2018-08-13T22:54:51.708Z,59.80
2018-08-13T22:57:21.520Z,60.18
2018-08-13T22:59:50.176Z,60.67
2018-08-13T23:02:18.915Z,59.87
2018-08-13T23:04:48.035Z,60.40
2018-08-13T23:07:21.356Z,59.59
2018-08-13T23:09:49.931Z,60.29
2018-08-13T23:12:18.919Z,59.76
2018-08-13T23:14:47.696Z,60.73
2018-08-13T23:17:21.016Z,61.17
2018-08-13T23:19:49.893Z,60.99
2018-08-13T23:22:28.619Z,60.38
2018-08-13T23:25:00.676Z,60.91
2018-08-13T23:27:29.244Z,62.07
2018-08-13T23:29:57.822Z,62.37
2018-08-13T23:32:26.850Z,61.85
2018-08-13T23:34:55.441Z,61.85
2018-08-13T23:37:24.206Z,61.35
2018-08-13T23:39:53.215Z,61.87
2018-08-13T23:42:21.745Z,61.65
2018-08-13T23:44:50.340Z,60.77
2018-08-13T23:47:20.364Z,62.90
2018-08-13T23:49:49.040Z,62.50
2018-08-13T23:52:20.784Z,62.44
2018-08-13T23:54:49.900Z,62.46
2018-08-13T23:57:18.475Z,62.83
2018-08-13T23:59:51.977Z,63.25
